Time;durP1;ratioP1;P1;durP2;ratioP2;P2;SDS_P1;SDS_P2;PMS_P1;PMS_P2;Temp;Humidity;BMP_temperature;BMP_pressure;BME280_temperature;BME280_humidity;BME280_pressure;Samples;Min_cycle;Max_cycle;Signal;HPM_P1;HPM_P2
2022/05/15 00:01:30;;;;;;;;;;;;;;;;;;5049425;28;20042;-55
2022/05/15 00:03:55;;;;;;;;;;;;;;;;;;5048256;28;20011;-56
2022/05/15 00:06:20;;;;;;;;;;;;;;;;;;5048850;28;19923;-56
2022/05/15 00:08:46;;;;;;;;;;;;;;;;;;5047563;28;19917;-55
2022/05/15 00:11:12;;;;;;;;;;;;;;;;;;5045821;28;19921;-55
2022/05/15 00:13:38;;;;;;;;;;;;;;;;;;5048163;28;19916;-56
2022/05/15 00:16:04;;;;;;;;;;;;;;;;;;5048925;28;19917;-55
2022/05/15 00:18:30;;;;;;;;;;;;;;;;;;5048377;28;19920;-56
2022/05/15 00:20:55;;;;;;;;;;;;;;;;;;5048497;28;19917;-55
2022/05/15 00:23:21;;;;;;;;;;;;;;;;;;5047173;28;19936;-54
2022/05/15 00:25:47;;;;;;;;;;;;;;;;;;5046636;28;20020;-56
2022/05/15 00:28:13;;;;;;;;;;;;;;;;;;5047996;28;20035;-54
2022/05/15 00:30:39;;;;;;;;;;;;;;;;;;5048890;28;20045;-54
2022/05/15 00:33:04;;;;;;;;;;;;;;;;;;5048140;28;19917;-58
2022/05/15 00:35:30;;;;;;;;;;;;;;;;;;5048236;28;19978;-56
2022/05/15 00:37:56;;;;;;;;;;;;;;;;;;5046597;28;20404;-56
2022/05/15 00:40:22;;;;;;;;;;;;;;;;;;5048911;28;19916;-55
2022/05/15 00:42:48;;;;;;;;;;;;;;;;;;5047810;28;19925;-56
2022/05/15 00:45:14;;;;;;;;;;;;;;;;;;5047759;28;19962;-55
2022/05/15 00:47:40;;;;;;;;;;;;;;;;;;5046207;28;19966;-55
2022/05/15 00:50:07;;;;;;;;;;;;;;;;;;5042769;28;20405;-56
2022/05/15 00:52:34;;;;;;;;;;;;;;;;;;5048335;28;19948;-55
2022/05/15 00:55:04;;;;;;;;;;;;;;;;;;5047483;28;20341;-56
2022/05/15 00:57:35;;;;;;;;;;;;;;;;;;5047007;28;20127;-55
2022/05/15 01:00:09;;;;;;;;;;;;;;;;;;5043482;28;19966;-56
2022/05/15 01:02:37;;;;;;;;;;;;;;;;;;5047944;28;19916;-55
2022/05/15 01:05:03;;;;;;;;;;;;;;;;;;5044629;28;20020;-55
2022/05/15 01:07:28;;;;;;;;;;;;;;;;;;5047244;28;19928;-55
2022/05/15 01:09:54;;;;;;;;;;;;;;;;;;5047351;28;20382;-58
2022/05/15 01:12:20;;;;;;;;;;;;;;;;;;5047028;28;19923;-54
2022/05/15 01:14:46;;;;;;;;;;;;;;;;;;5048215;28;19952;-56
2022/05/15 01:17:12;;;;;;;;;;;;;;;;;;5047174;28;20002;-56
2022/05/15 01:19:38;;;;;;;;;;;;;;;;;;5048105;28;19932;-55
2022/05/15 01:22:04;;;;;;;;;;;;;;;;;;5048120;28;19962;-54
2022/05/15 01:24:29;;;;;;;;;;;;;;;;;;5047593;28;20003;-56
2022/05/15 01:26:55;;;;;;;;;;;;;;;;;;5047876;28;19917;-55
2022/05/15 01:29:28;;;;;;;;;;;;;;;;;;5046976;28;20017;-55
2022/05/15 01:31:54;;;;;;;;;;;;;;;;;;5048145;28;20302;-55
2022/05/15 01:34:19;;;;;;;;;;;;;;;;;;5047856;28;19924;-55
2022/05/15 01:36:44;;;;;;;;;;;;;;;;;;5047044;28;19932;-54
2022/05/15 01:39:10;;;;;;;;;;;;;;;;;;5047286;28;19917;-54
2022/05/15 01:41:35;;;;;;;;;;;;;;;;;;5047991;28;19995;-54
2022/05/15 01:44:00;;;;;;;;;;;;;;;;;;5047263;28;20023;-56
2022/05/15 01:46:27;;;;;;;;;;;;;;;;;;5044386;28;19921;-55
2022/05/15 01:48:53;;;;;;;;;;;;;;;;;;5047201;28;19916;-53
2022/05/15 01:51:18;;;;;;;;;;;;;;;;;;5044881;28;19916;-54
2022/05/15 01:53:43;;;;;;;;;;;;;;;;;;5046838;28;19920;-54
2022/05/15 01:56:09;;;;;;;;;;;;;;;;;;5047507;28;20386;-53
2022/05/15 01:58:35;;;;;;;;;;;;;;;;;;5048573;28;19917;-53
2022/05/15 02:01:00;;;;;;;;;;;;;;;;;;5050874;28;19932;-55
2022/05/15 02:03:25;;;;;;;;;;;;;;;;;;5050891;28;20184;-55
2022/05/15 02:05:51;;;;;;;;;;;;;;;;;;5050011;28;20004;-55
2022/05/15 02:08:18;;;;;;;;;;;;;;;;;;5050690;28;19930;-55
2022/05/15 02:10:43;;;;;;;;;;;;;;;;;;5050207;28;19933;-54
2022/05/15 02:13:09;;;;;;;;;;;;;;;;;;5050644;28;19951;-52
2022/05/15 02:15:34;;;;;;;;;;;;;;;;;;5050657;28;19939;-53
2022/05/15 02:17:59;;;;;;;;;;;;;;;;;;5048485;28;20408;-55
2022/05/15 02:20:24;;;;;;;;;;;;;;;;;;5050426;28;19920;-53
2022/05/15 02:22:50;;;;;;;;;;;;;;;;;;5051098;28;19928;-55
2022/05/15 02:25:16;;;;;;;;;;;;;;;;;;5050737;28;19924;-55
2022/05/15 02:27:42;;;;;;;;;;;;;;;;;;5050483;28;20386;-53
2022/05/15 02:30:08;;;;;;;;;;;;;;;;;;5051247;28;19951;-55
2022/05/15 02:32:33;;;;;;;;;;;;;;;;;;5050642;28;20404;-55
2022/05/15 02:34:59;;;;;;;;;;;;;;;;;;5054082;28;19920;-55
2022/05/15 02:37:24;;;;;;;;;;;;;;;;;;5050233;28;20170;-55
2022/05/15 02:39:49;;;;;;;;;;;;;;;;;;5051115;28;19916;-55
2022/05/15 02:42:15;;;;;;;;;;;;;;;;;;5050659;28;19916;-55
2022/05/15 02:44:40;;;;;;;;;;;;;;;;;;5050993;28;19923;-57
2022/05/15 02:47:05;;;;;;;;;;;;;;;;;;5050256;28;19917;-54
2022/05/15 02:52:15;;;;;;;;;;;;;;;;;;5046417;28;19927;-55
2022/05/15 02:54:40;;;;;;;;;;;;;;;;;;5050037;28;19916;-55
2022/05/15 02:57:07;;;;;;;;;;;;;;;;;;5050082;28;19917;-55
2022/05/15 02:59:32;;;;;;;;;;;;;;;;;;5049294;28;19917;-53
2022/05/15 03:01:57;;;;;;;;;;;;;;;;;;5045433;28;19924;-55
2022/05/15 03:04:23;;;;;;;;;;;;;;;;;;5044759;28;19925;-55
2022/05/15 03:06:48;;;;;;;;;;;;;;;;;;5049951;28;19947;-54
2022/05/15 03:09:13;;;;;;;;;;;;;;;;;;5049340;28;19924;-55
2022/05/15 03:11:38;;;;;;;;;;;;;;;;;;5049490;28;19921;-58
2022/05/15 03:14:04;;;;;;;;;;;;;;;;;;5049683;28;19917;-54
2022/05/15 03:16:31;;;;;;;;;;;;;;;;;;5050073;28;19924;-55
2022/05/15 03:18:56;;;;;;;;;;;;;;;;;;5048572;28;20406;-53
2022/05/15 03:21:31;;;;;;;;;;;;;;;;;;5050004;28;19964;-54
2022/05/15 03:23:56;;;;;;;;;;;;;;;;;;5050190;28;20377;-54
2022/05/15 03:26:21;;;;;;;;;;;;;;;;;;5050403;28;19916;-54
2022/05/15 03:28:47;;;;;;;;;;;;;;;;;;5049228;28;19925;-54
2022/05/15 03:31:12;;;;;;;;;;;;;;;;;;5050021;28;20119;-53
2022/05/15 03:33:38;;;;;;;;;;;;;;;;;;5048313;28;19928;-55
2022/05/15 03:36:10;;;;;;;;;;;;;;;;;;5049814;28;20382;-57
2022/05/15 03:38:35;;;;;;;;;;;;;;;;;;5047805;28;19928;-53
2022/05/15 03:41:01;;;;;;;;;;;;;;;;;;5049760;28;19916;-54
2022/05/15 03:43:26;;;;;;;;;;;;;;;;;;5049813;28;19921;-54
2022/05/15 03:45:51;;;;;;;;;;;;;;;;;;5049625;28;19942;-55
2022/05/15 03:48:16;;;;;;;;;;;;;;;;;;5048080;28;19920;-57
2022/05/15 03:50:42;;;;;;;;;;;;;;;;;;5049184;28;19994;-54
2022/05/15 03:53:07;;;;;;;;;;;;;;;;;;5049888;28;20344;-57
2022/05/15 03:55:32;;;;;;;;;;;;;;;;;;5048514;28;19916;-54
2022/05/15 03:57:58;;;;;;;;;;;;;;;;;;5048687;28;20340;-54
2022/05/15 04:00:24;;;;;;;;;;;;;;;;;;5049562;28;20365;-54
2022/05/15 04:02:49;;;;;;;;;;;;;;;;;;5047693;28;19924;-54
2022/05/15 04:05:14;;;;;;;;;;;;;;;;;;5048737;28;19921;-54
2022/05/15 04:07:43;;;;;;;;;;;;;;;;;;5048229;28;19912;-55
2022/05/15 04:10:09;;;;;;;;;;;;;;;;;;5049576;28;20015;-55
2022/05/15 04:12:34;;;;;;;;;;;;;;;;;;5047350;28;20342;-57
2022/05/15 04:14:59;;;;;;;;;;;;;;;;;;5048622;28;20009;-55
2022/05/15 04:17:26;;;;;;;;;;;;;;;;;;5048413;28;19962;-57
2022/05/15 04:19:51;;;;;;;;;;;;;;;;;;5049095;28;20398;-54
2022/05/15 04:22:17;;;;;;;;;;;;;;;;;;5049287;28;19917;-54
2022/05/15 04:24:42;;;;;;;;;;;;;;;;;;5048851;28;19920;-54
2022/05/15 04:27:07;;;;;;;;;;;;;;;;;;5049073;28;20456;-53
2022/05/15 04:29:32;;;;;;;;;;;;;;;;;;5046940;28;19917;-54
2022/05/15 04:31:58;;;;;;;;;;;;;;;;;;5048511;28;20418;-55
2022/05/15 04:34:24;;;;;;;;;;;;;;;;;;5048914;28;20309;-55
2022/05/15 04:36:49;;;;;;;;;;;;;;;;;;5049116;28;20416;-54
2022/05/15 04:39:15;;;;;;;;;;;;;;;;;;5047909;28;20275;-53
2022/05/15 04:41:40;;;;;;;;;;;;;;;;;;5048867;28;19917;-53
2022/05/15 04:44:06;;;;;;;;;;;;;;;;;;5047687;28;20019;-55
2022/05/15 04:46:31;;;;;;;;;;;;;;;;;;5048552;28;19920;-54
2022/05/15 04:48:57;;;;;;;;;;;;;;;;;;5047247;28;20223;-54
2022/05/15 04:51:23;;;;;;;;;;;;;;;;;;5048357;28;19928;-53
2022/05/15 04:53:48;;;;;;;;;;;;;;;;;;5048595;28;19927;-53
2022/05/15 04:56:13;;;;;;;;;;;;;;;;;;5048980;28;19916;-56
2022/05/15 04:58:38;;;;;;;;;;;;;;;;;;5047269;28;19927;-54
2022/05/15 05:01:04;;;;;;;;;;;;;;;;;;5047991;28;20003;-54
2022/05/15 05:03:29;;;;;;;;;;;;;;;;;;5046499;28;19920;-53
2022/05/15 05:05:54;;;;;;;;;;;;;;;;;;5048504;28;19927;-52
2022/05/15 05:08:20;;;;;;;;;;;;;;;;;;5047292;28;19921;-54
2022/05/15 05:10:45;;;;;;;;;;;;;;;;;;5048592;28;19932;-56
2022/05/15 05:13:10;;;;;;;;;;;;;;;;;;5047860;28;19966;-57
2022/05/15 05:15:36;;;;;;;;;;;;;;;;;;5047743;28;19917;-55
2022/05/15 05:18:01;;;;;;;;;;;;;;;;;;5047302;28;20068;-56
2022/05/15 05:20:26;;;;;;;;;;;;;;;;;;5048336;28;20255;-55
2022/05/15 05:22:52;;;;;;;;;;;;;;;;;;5048235;28;20059;-55
2022/05/15 05:25:18;;;;;;;;;;;;;;;;;;5047911;28;19928;-56
2022/05/15 05:27:43;;;;;;;;;;;;;;;;;;5046142;28;19916;-56
2022/05/15 05:30:16;;;;;;;;;;;;;;;;;;5048982;28;19916;-56
2022/05/15 05:32:41;;;;;;;;;;;;;;;;;;5048733;28;19917;-55
2022/05/15 05:35:07;;;;;;;;;;;;;;;;;;5051509;28;19921;-55
2022/05/15 05:37:32;;;;;;;;;;;;;;;;;;5047811;28;20390;-55
2022/05/15 05:39:57;;;;;;;;;;;;;;;;;;5052480;28;20295;-55
2022/05/15 05:42:23;;;;;;;;;;;;;;;;;;5044400;28;20302;-55
2022/05/15 05:44:48;;;;;;;;;;;;;;;;;;5051719;28;19928;-56
2022/05/15 05:47:13;;;;;;;;;;;;;;;;;;5049989;28;19916;-56
2022/05/15 05:49:39;;;;;;;;;;;;;;;;;;5051753;28;19921;-55
2022/05/15 05:52:04;;;;;;;;;;;;;;;;;;5052110;28;19917;-55
2022/05/15 05:54:29;;;;;;;;;;;;;;;;;;5050930;28;20482;-55
2022/05/15 05:56:55;;;;;;;;;;;;;;;;;;5051744;28;19916;-56
2022/05/15 05:59:20;;;;;;;;;;;;;;;;;;5050777;28;19916;-55
2022/05/15 06:01:45;;;;;;;;;;;;;;;;;;5050795;28;20167;-54
2022/05/15 06:06:54;;;;;;;;;;;;;;;;;;5047346;28;19923;-56
2022/05/15 06:09:20;;;;;;;;;;;;;;;;;;5049934;28;20299;-56
2022/05/15 06:11:45;;;;;;;;;;;;;;;;;;5050999;28;19917;-56
2022/05/15 06:14:10;;;;;;;;;;;;;;;;;;5051466;28;20031;-55
2022/05/15 06:16:36;;;;;;;;;;;;;;;;;;5050035;28;20294;-56
2022/05/15 06:19:01;;;;;;;;;;;;;;;;;;5050761;28;20030;-56
2022/05/15 06:21:26;;;;;;;;;;;;;;;;;;5051149;28;20003;-55
2022/05/15 06:23:51;;;;;;;;;;;;;;;;;;5050863;28;19929;-55
2022/05/15 06:26:17;;;;;;;;;;;;;;;;;;5048587;28;20436;-54
2022/05/15 06:28:42;;;;;;;;;;;;;;;;;;5049433;28;19921;-56
2022/05/15 06:31:07;;;;;;;;;;;;;;;;;;5048633;28;20007;-53
2022/05/15 06:33:33;;;;;;;;;;;;;;;;;;5049175;28;19924;-55
2022/05/15 06:35:59;;;;;;;;;;;;;;;;;;5050084;28;19952;-54
2022/05/15 06:38:24;;;;;;;;;;;;;;;;;;5048884;28;19967;-55
2022/05/15 06:40:49;;;;;;;;;;;;;;;;;;5049895;28;19921;-56
2022/05/15 06:43:15;;;;;;;;;;;;;;;;;;5050239;28;19924;-56
2022/05/15 06:45:41;;;;;;;;;;;;;;;;;;5048071;28;19975;-56
2022/05/15 06:48:06;;;;;;;;;;;;;;;;;;5050002;28;19917;-55
2022/05/15 06:50:31;;;;;;;;;;;;;;;;;;5051275;28;20339;-56
2022/05/15 06:52:57;;;;;;;;;;;;;;;;;;5049788;28;19916;-56
2022/05/15 06:55:23;;;;;;;;;;;;;;;;;;5050476;28;19921;-55
2022/05/15 06:57:50;;;;;;;;;;;;;;;;;;5049557;28;19947;-56
2022/05/15 07:00:17;;;;;;;;;;;;;;;;;;5050252;28;20386;-57
2022/05/15 07:02:42;;;;;;;;;;;;;;;;;;5050351;28;19960;-57
2022/05/15 07:05:09;;;;;;;;;;;;;;;;;;5050097;28;19999;-57
2022/05/15 07:07:34;;;;;;;;;;;;;;;;;;5045837;28;19925;-57
2022/05/15 07:09:59;;;;;;;;;;;;;;;;;;5050159;28;19923;-57
2022/05/15 07:12:25;;;;;;;;;;;;;;;;;;5049990;28;19920;-59
2022/05/15 07:14:50;;;;;;;;;;;;;;;;;;5049933;28;20386;-55
2022/05/15 07:17:16;;;;;;;;;;;;;;;;;;5048925;28;20378;-54
2022/05/15 07:19:41;;;;;;;;;;;;;;;;;;5048085;28;19923;-57
2022/05/15 07:22:07;;;;;;;;;;;;;;;;;;5049115;28;19928;-57
2022/05/15 07:24:33;;;;;;;;;;;;;;;;;;5048029;28;19947;-57
2022/05/15 07:26:58;;;;;;;;;;;;;;;;;;5047149;28;20344;-56
2022/05/15 07:29:24;;;;;;;;;;;;;;;;;;5049635;28;19999;-57
2022/05/15 07:31:51;;;;;;;;;;;;;;;;;;5049937;28;19917;-56
2022/05/15 07:34:16;;;;;;;;;;;;;;;;;;5049815;28;19921;-57
2022/05/15 07:36:43;;;;;;;;;;;;;;;;;;5050075;28;20313;-58
2022/05/15 07:39:08;;;;;;;;;;;;;;;;;;5048321;28;20368;-57
2022/05/15 07:41:33;;;;;;;;;;;;;;;;;;5049767;28;19948;-56
2022/05/15 07:43:59;;;;;;;;;;;;;;;;;;5047198;28;19928;-56
2022/05/15 07:46:24;;;;;;;;;;;;;;;;;;5048719;28;19921;-57
2022/05/15 07:48:49;;;;;;;;;;;;;;;;;;5046818;28;19920;-56
2022/05/15 07:51:15;;;;;;;;;;;;;;;;;;5048026;28;19917;-58
2022/05/15 07:53:40;;;;;;;;;;;;;;;;;;5048870;28;19921;-57
2022/05/15 07:56:09;;;;;;;;;;;;;;;;;;5045791;28;19952;-57
2022/05/15 07:58:35;;;;;;;;;;;;;;;;;;5048829;28;20404;-58
2022/05/15 08:01:04;;;;;;;;;;;;;;;;;;5049334;28;19925;-56
2022/05/15 08:03:33;;;;;;;;;;;;;;;;;;5045496;28;20289;-56
2022/05/15 08:08:43;;;;;;;;;;;;;;;;;;5047805;28;20475;-57
2022/05/15 08:11:08;;;;;;;;;;;;;;;;;;5049456;28;20011;-57
2022/05/15 08:13:33;;;;;;;;;;;;;;;;;;5049430;28;19984;-56
2022/05/15 08:15:59;;;;;;;;;;;;;;;;;;5049060;28;19981;-57
2022/05/15 08:23:54;;;;;;;;;;;;;;;;;;5049203;28;20026;-55
2022/05/15 08:26:19;;;;;;;;;;;;;;;;;;5049660;28;19920;-54
2022/05/15 08:28:46;;;;;;;;;;;;;;;;;;5045651;28;19925;-54
2022/05/15 08:31:12;;;;;;;;;;;;;;;;;;5047159;28;19921;-55
2022/05/15 08:33:37;;;;;;;;;;;;;;;;;;5047491;28;19913;-55
2022/05/15 08:36:03;;;;;;;;;;;;;;;;;;5047170;28;19966;-57
2022/05/15 08:38:28;;;;;;;;;;;;;;;;;;5047573;28;19917;-54
2022/05/15 08:40:57;;;;;;;;;;;;;;;;;;5046938;28;20389;-55
2022/05/15 08:43:27;;;;;;;;;;;;;;;;;;5048804;28;20014;-55
2022/05/15 08:45:59;;;;;;;;;;;;;;;;;;5047022;28;20293;-54
2022/05/15 08:48:26;;;;;;;;;;;;;;;;;;5047710;28;19921;-54
2022/05/15 08:50:52;;;;;;;;;;;;;;;;;;5048530;28;19979;-54
2022/05/15 08:53:21;;;;;;;;;;;;;;;;;;5048530;28;19924;-54
2022/05/15 08:55:51;;;;;;;;;;;;;;;;;;5048650;28;20432;-54
2022/05/15 08:58:39;;;;;;;;;;;;;;;;;;5047485;28;19963;-55
2022/05/15 09:01:05;;;;;;;;;;;;;;;;;;5046415;28;19963;-55
2022/05/15 09:03:33;;;;;;;;;;;;;;;;;;5048217;28;19921;-56
2022/05/15 09:06:03;;;;;;;;;;;;;;;;;;5048437;28;20471;-59
2022/05/15 09:08:52;;;;;;;;;;;;;;;;;;5049661;28;19924;-55
2022/05/15 09:11:28;;;;;;;;;;;;;;;;;;5039904;28;19931;-54
2022/05/15 09:14:14;;;;;;;;;;;;;;;;;;5050041;28;19916;-55
2022/05/15 09:16:43;;;;;;;;;;;;;;;;;;5051174;28;19974;-56
2022/05/15 09:19:08;;;;;;;;;;;;;;;;;;5051720;28;19929;-55
2022/05/15 09:21:34;;;;;;;;;;;;;;;;;;5051726;28;20006;-55
2022/05/15 09:24:05;;;;;;;;;;;;;;;;;;5052259;28;20374;-55
2022/05/15 09:26:43;;;;;;;;;;;;;;;;;;5052127;28;19916;-55
2022/05/15 09:29:15;;;;;;;;;;;;;;;;;;5050963;28;19920;-55
2022/05/15 09:31:44;;;;;;;;;;;;;;;;;;5052152;28;20280;-55
2022/05/15 09:34:12;;;;;;;;;;;;;;;;;;5047145;28;19921;-55
2022/05/15 09:36:42;;;;;;;;;;;;;;;;;;5051596;28;20381;-55
2022/05/15 09:39:22;;;;;;;;;;;;;;;;;;5048228;28;20385;-55
2022/05/15 09:44:43;;;;;;;;;;;;;;;;;;5050124;28;19948;-54
2022/05/15 09:47:20;;;;;;;;;;;;;;;;;;5051311;28;19917;-54
2022/05/15 09:49:47;;;;;;;;;;;;;;;;;;5050296;28;19968;-56
2022/05/15 09:52:20;;;;;;;;;;;;;;;;;;5051853;28;19924;-56
2022/05/15 09:54:47;;;;;;;;;;;;;;;;;;5051406;28;20351;-58
2022/05/15 09:57:28;;;;;;;;;;;;;;;;;;5050538;28;19952;-55
2022/05/15 09:59:59;;;;;;;;;;;;;;;;;;5052229;28;19917;-54
2022/05/15 10:02:37;;;;;;;;;;;;;;;;;;5051207;28;19920;-56
2022/05/15 10:05:06;;;;;;;;;;;;;;;;;;5051056;28;19928;-56
2022/05/15 10:07:34;;;;;;;;;;;;;;;;;;5050595;28;19932;-56
2022/05/15 10:10:18;;;;;;;;;;;;;;;;;;5052045;28;20356;-56
2022/05/15 10:12:45;;;;;;;;;;;;;;;;;;5051224;28;20443;-57
2022/05/15 10:15:10;;;;;;;;;;;;;;;;;;5051347;28;19970;-56
2022/05/15 10:17:40;;;;;;;;;;;;;;;;;;5050451;28;19920;-56
2022/05/15 10:20:31;;;;;;;;;;;;;;;;;;5050437;28;19917;-57
2022/05/15 10:23:05;;;;;;;;;;;;;;;;;;5047528;28;20349;-57
2022/05/15 10:25:34;;;;;;;;;;;;;;;;;;5045581;28;19925;-56
2022/05/15 10:28:05;;;;;;;;;;;;;;;;;;5049812;28;19921;-58
2022/05/15 10:30:33;;;;;;;;;;;;;;;;;;5050226;28;19917;-58
2022/05/15 10:33:03;;;;;;;;;;;;;;;;;;5051004;28;19917;-57
2022/05/15 10:35:48;;;;;;;;;;;;;;;;;;5050943;28;20011;-59
2022/05/15 10:38:19;;;;;;;;;;;;;;;;;;5048788;28;19916;-57
2022/05/15 10:41:09;;;;;;;;;;;;;;;;;;5050876;28;19916;-57
2022/05/15 10:43:53;;;;;;;;;;;;;;;;;;5041123;28;19925;-56
2022/05/15 10:46:37;;;;;;;;;;;;;;;;;;5050205;28;19917;-57
2022/05/15 10:49:02;;;;;;;;;;;;;;;;;;5050079;28;20090;-57
2022/05/15 10:51:46;;;;;;;;;;;;;;;;;;5050798;28;19917;-58
2022/05/15 10:57:29;;;;;;;;;;;;;;;;;;5050551;28;19989;-57
2022/05/15 11:00:05;;;;;;;;;;;;;;;;;;5046207;28;19917;-57
2022/05/15 11:02:49;;;;;;;;;;;;;;;;;;5048532;28;19921;-57
2022/05/15 11:05:14;;;;;;;;;;;;;;;;;;5049940;28;19921;-58
2022/05/15 11:07:42;;;;;;;;;;;;;;;;;;5048942;28;19928;-58
2022/05/15 11:10:08;;;;;;;;;;;;;;;;;;5048836;28;20074;-58
2022/05/15 11:12:51;;;;;;;;;;;;;;;;;;5050669;28;20474;-57
2022/05/15 11:15:20;;;;;;;;;;;;;;;;;;5047274;28;20418;-58
2022/05/15 11:18:05;;;;;;;;;;;;;;;;;;5048362;28;20020;-58
2022/05/15 11:20:35;;;;;;;;;;;;;;;;;;5047575;28;20378;-58
2022/05/15 11:23:06;;;;;;;;;;;;;;;;;;5048626;28;19963;-58
2022/05/15 11:25:37;;;;;;;;;;;;;;;;;;5049369;28;19927;-58
2022/05/15 11:28:03;;;;;;;;;;;;;;;;;;5045760;28;20021;-59
2022/05/15 11:30:30;;;;;;;;;;;;;;;;;;5049095;28;20137;-58
2022/05/15 11:32:55;;;;;;;;;;;;;;;;;;5049710;28;19920;-59
2022/05/15 11:35:21;;;;;;;;;;;;;;;;;;5049822;28;20340;-58
2022/05/15 11:38:02;;;;;;;;;;;;;;;;;;5048928;28;19923;-57
2022/05/15 11:40:30;;;;;;;;;;;;;;;;;;5049118;28;19971;-57
2022/05/15 11:42:55;;;;;;;;;;;;;;;;;;5050165;28;19920;-58
2022/05/15 11:45:38;;;;;;;;;;;;;;;;;;5049214;28;19925;-58
2022/05/15 11:48:19;;;;;;;;;;;;;;;;;;5048818;28;19917;-57
2022/05/15 11:51:04;;;;;;;;;;;;;;;;;;5048290;28;19978;-57
2022/05/15 11:53:35;;;;;;;;;;;;;;;;;;5049205;28;19916;-57
2022/05/15 11:56:16;;;;;;;;;;;;;;;;;;5048688;28;19928;-57
2022/05/15 11:58:41;;;;;;;;;;;;;;;;;;5048001;28;19921;-57
2022/05/15 12:01:12;;;;;;;;;;;;;;;;;;5047875;28;20298;-58
2022/05/15 12:03:40;;;;;;;;;;;;;;;;;;5049558;28;19921;-56
2022/05/15 12:06:11;;;;;;;;;;;;;;;;;;5049205;28;19920;-57
2022/05/15 12:08:40;;;;;;;;;;;;;;;;;;5045389;28;20386;-57
2022/05/15 12:11:11;;;;;;;;;;;;;;;;;;5047961;28;20354;-57
2022/05/15 12:13:39;;;;;;;;;;;;;;;;;;5048996;28;19916;-58
2022/05/15 12:16:25;;;;;;;;;;;;;;;;;;5046023;28;20389;-58
2022/05/15 12:19:17;;;;;;;;;;;;;;;;;;5035625;28;20341;-58
2022/05/15 12:21:46;;;;;;;;;;;;;;;;;;5046612;28;19923;-58
2022/05/15 12:24:27;;;;;;;;;;;;;;;;;;5047915;28;19942;-58
2022/05/15 12:27:11;;;;;;;;;;;;;;;;;;5049617;28;19939;-58
2022/05/15 12:30:06;;;;;;;;;;;;;;;;;;5047863;28;19916;-58
2022/05/15 12:32:35;;;;;;;;;;;;;;;;;;5034405;28;19939;-58
2022/05/15 12:35:00;;;;;;;;;;;;;;;;;;5048533;28;20294;-58
2022/05/15 12:37:28;;;;;;;;;;;;;;;;;;5047363;28;19924;-58
2022/05/15 12:39:54;;;;;;;;;;;;;;;;;;5049180;28;20008;-58
2022/05/15 12:42:33;;;;;;;;;;;;;;;;;;5047780;28;19996;-58
2022/05/15 12:45:01;;;;;;;;;;;;;;;;;;5049254;28;19924;-57
2022/05/15 12:47:31;;;;;;;;;;;;;;;;;;5046424;28;19959;-57
2022/05/15 12:49:59;;;;;;;;;;;;;;;;;;5048399;28;20020;-58
2022/05/15 12:52:27;;;;;;;;;;;;;;;;;;5047801;28;20337;-59
2022/05/15 12:54:57;;;;;;;;;;;;;;;;;;5047992;28;20027;-59
2022/05/15 12:57:22;;;;;;;;;;;;;;;;;;5046006;28;19916;-58
2022/05/15 12:59:49;;;;;;;;;;;;;;;;;;5048847;28;20281;-59
2022/05/15 13:02:15;;;;;;;;;;;;;;;;;;5047599;28;19947;-59
2022/05/15 13:04:44;;;;;;;;;;;;;;;;;;5048217;28;19921;-58
2022/05/15 13:07:10;;;;;;;;;;;;;;;;;;5047309;28;19971;-58
2022/05/15 13:09:35;;;;;;;;;;;;;;;;;;5047955;28;19960;-58
2022/05/15 13:12:02;;;;;;;;;;;;;;;;;;5047969;28;19951;-58
2022/05/15 13:14:27;;;;;;;;;;;;;;;;;;5046450;28;20596;-59
2022/05/15 13:16:53;;;;;;;;;;;;;;;;;;5048007;28;19952;-57
2022/05/15 13:19:22;;;;;;;;;;;;;;;;;;5047006;28;20020;-58
2022/05/15 13:21:49;;;;;;;;;;;;;;;;;;5047856;28;19923;-57
2022/05/15 13:24:15;;;;;;;;;;;;;;;;;;5048023;28;20372;-57
2022/05/15 13:26:44;;;;;;;;;;;;;;;;;;5045455;28;19917;-59
2022/05/15 13:29:14;;;;;;;;;;;;;;;;;;5047262;28;19923;-59
2022/05/15 13:31:40;;;;;;;;;;;;;;;;;;5047117;28;19928;-59
2022/05/15 13:34:08;;;;;;;;;;;;;;;;;;5047885;28;19928;-59
2022/05/15 13:36:33;;;;;;;;;;;;;;;;;;5046887;28;19960;-58
2022/05/15 13:44:32;;;;;;;;;;;;;;;;;;5046647;28;19966;-58
2022/05/15 13:47:04;;;;;;;;;;;;;;;;;;5047788;28;19923;-59
2022/05/15 13:49:38;;;;;;;;;;;;;;;;;;5041575;28;20504;-57
2022/05/15 13:52:19;;;;;;;;;;;;;;;;;;5047414;28;19921;-58
2022/05/15 13:54:45;;;;;;;;;;;;;;;;;;5049782;28;20358;-56
2022/05/15 13:57:11;;;;;;;;;;;;;;;;;;5050386;28;19923;-57
2022/05/15 13:59:44;;;;;;;;;;;;;;;;;;5051441;28;19923;-57
2022/05/15 14:02:19;;;;;;;;;;;;;;;;;;5050296;28;19925;-57
2022/05/15 14:04:54;;;;;;;;;;;;;;;;;;5050021;28;19937;-57
2022/05/15 14:07:27;;;;;;;;;;;;;;;;;;5047141;28;19982;-57
2022/05/15 14:09:53;;;;;;;;;;;;;;;;;;5048124;28;20385;-56
2022/05/15 14:12:36;;;;;;;;;;;;;;;;;;5046637;28;19917;-56
2022/05/15 14:15:05;;;;;;;;;;;;;;;;;;5049995;28;19959;-57
2022/05/15 14:17:43;;;;;;;;;;;;;;;;;;5048693;28;19959;-57
2022/05/15 14:20:09;;;;;;;;;;;;;;;;;;5050535;28;19923;-58
2022/05/15 14:22:36;;;;;;;;;;;;;;;;;;5044295;28;19992;-58
2022/05/15 14:25:02;;;;;;;;;;;;;;;;;;5051153;28;20409;-59
2022/05/15 14:27:27;;;;;;;;;;;;;;;;;;5049076;28;19948;-59
2022/05/15 14:29:53;;;;;;;;;;;;;;;;;;5050727;28;19955;-58
2022/05/15 14:32:23;;;;;;;;;;;;;;;;;;5050263;28;19932;-60
2022/05/15 14:34:49;;;;;;;;;;;;;;;;;;5050380;28;19917;-58
2022/05/15 14:37:14;;;;;;;;;;;;;;;;;;5049887;28;19917;-57
2022/05/15 14:39:40;;;;;;;;;;;;;;;;;;5050238;28;19927;-57
2022/05/15 14:42:05;;;;;;;;;;;;;;;;;;5050549;28;19924;-57
2022/05/15 14:44:30;;;;;;;;;;;;;;;;;;5050082;28;19928;-56
2022/05/15 14:46:56;;;;;;;;;;;;;;;;;;5049849;28;19982;-56
2022/05/15 14:49:23;;;;;;;;;;;;;;;;;;5049812;28;19916;-57
2022/05/15 14:51:48;;;;;;;;;;;;;;;;;;5049848;28;19917;-57
2022/05/15 14:54:17;;;;;;;;;;;;;;;;;;5050171;28;19917;-57
2022/05/15 14:56:42;;;;;;;;;;;;;;;;;;5050169;28;19939;-58
2022/05/15 14:59:11;;;;;;;;;;;;;;;;;;5049786;28;20385;-59
2022/05/15 15:01:37;;;;;;;;;;;;;;;;;;5048845;28;19959;-61
2022/05/15 15:04:03;;;;;;;;;;;;;;;;;;5049188;28;19928;-60
2022/05/15 15:06:28;;;;;;;;;;;;;;;;;;5048366;28;19939;-59
2022/05/15 15:08:54;;;;;;;;;;;;;;;;;;5048758;28;19923;-59
2022/05/15 15:11:21;;;;;;;;;;;;;;;;;;5048082;28;20050;-56
2022/05/15 15:13:48;;;;;;;;;;;;;;;;;;5050897;28;19970;-57
2022/05/15 15:16:15;;;;;;;;;;;;;;;;;;5047083;28;19917;-57
2022/05/15 15:18:40;;;;;;;;;;;;;;;;;;5048002;28;20334;-57
2022/05/15 15:21:06;;;;;;;;;;;;;;;;;;5048415;28;20003;-56
2022/05/15 15:23:31;;;;;;;;;;;;;;;;;;5048588;28;19916;-58
2022/05/15 15:25:56;;;;;;;;;;;;;;;;;;5047055;28;20406;-57
2022/05/15 15:28:22;;;;;;;;;;;;;;;;;;5048782;28;20094;-57
2022/05/15 15:30:47;;;;;;;;;;;;;;;;;;5048443;28;20404;-57
2022/05/15 15:33:13;;;;;;;;;;;;;;;;;;5047946;28;19923;-59
2022/05/15 15:35:38;;;;;;;;;;;;;;;;;;5049737;28;19944;-56
2022/05/15 15:38:16;;;;;;;;;;;;;;;;;;5049234;28;19924;-57
2022/05/15 15:40:45;;;;;;;;;;;;;;;;;;5047643;28;19917;-57
2022/05/15 15:43:11;;;;;;;;;;;;;;;;;;5049655;28;20297;-56
2022/05/15 15:45:37;;;;;;;;;;;;;;;;;;5047991;28;19917;-56
2022/05/15 15:48:02;;;;;;;;;;;;;;;;;;5046978;28;21549;-57
2022/05/15 15:50:29;;;;;;;;;;;;;;;;;;5048953;28;19943;-57
2022/05/15 15:52:54;;;;;;;;;;;;;;;;;;5049113;28;19916;-57
2022/05/15 15:55:20;;;;;;;;;;;;;;;;;;5048515;28;19936;-57
2022/05/15 15:57:45;;;;;;;;;;;;;;;;;;5048297;28;20282;-57
2022/05/15 16:00:11;;;;;;;;;;;;;;;;;;5049618;28;19928;-57
2022/05/15 16:02:41;;;;;;;;;;;;;;;;;;5048038;28;19960;-57
2022/05/15 16:05:07;;;;;;;;;;;;;;;;;;5045559;28;20512;-56
2022/05/15 16:07:33;;;;;;;;;;;;;;;;;;5047897;28;19924;-58
2022/05/15 16:09:58;;;;;;;;;;;;;;;;;;5047464;28;19932;-57
2022/05/15 16:12:23;;;;;;;;;;;;;;;;;;5048833;28;20429;-57
2022/05/15 16:14:49;;;;;;;;;;;;;;;;;;5048846;28;19925;-55
2022/05/15 16:17:14;;;;;;;;;;;;;;;;;;5048042;28;19917;-57
2022/05/15 16:19:40;;;;;;;;;;;;;;;;;;5048905;28;19927;-57
2022/05/15 16:22:06;;;;;;;;;;;;;;;;;;5048743;28;21485;-57
2022/05/15 16:24:36;;;;;;;;;;;;;;;;;;5048388;28;19924;-56
2022/05/15 16:27:06;;;;;;;;;;;;;;;;;;5048819;28;19928;-57
2022/05/15 16:29:38;;;;;;;;;;;;;;;;;;5048552;28;20389;-57
2022/05/15 16:32:03;;;;;;;;;;;;;;;;;;5048301;28;19924;-57
2022/05/15 16:34:29;;;;;;;;;;;;;;;;;;5048516;28;20309;-57
2022/05/15 16:36:54;;;;;;;;;;;;;;;;;;5049076;28;19920;-58
2022/05/15 16:39:20;;;;;;;;;;;;;;;;;;5047209;28;19921;-57
2022/05/15 16:41:45;;;;;;;;;;;;;;;;;;5048281;28;20531;-59
2022/05/15 16:44:12;;;;;;;;;;;;;;;;;;5048835;28;19921;-57
2022/05/15 16:46:38;;;;;;;;;;;;;;;;;;5048670;28;20335;-57
2022/05/15 16:49:03;;;;;;;;;;;;;;;;;;5047624;28;19932;-57
2022/05/15 16:51:28;;;;;;;;;;;;;;;;;;5045739;28;19917;-58
2022/05/15 16:53:53;;;;;;;;;;;;;;;;;;5048248;28;19986;-57
2022/05/15 16:56:19;;;;;;;;;;;;;;;;;;5046848;28;19928;-57
2022/05/15 16:58:44;;;;;;;;;;;;;;;;;;5047842;28;19925;-57
2022/05/15 17:01:10;;;;;;;;;;;;;;;;;;5047423;28;19921;-58
2022/05/15 17:03:35;;;;;;;;;;;;;;;;;;5048813;28;19923;-58
2022/05/15 17:06:00;;;;;;;;;;;;;;;;;;5048119;28;19974;-56
2022/05/15 17:08:26;;;;;;;;;;;;;;;;;;5047898;28;19917;-57
2022/05/15 17:10:52;;;;;;;;;;;;;;;;;;5048555;28;19966;-57
2022/05/15 17:13:17;;;;;;;;;;;;;;;;;;5048754;28;19968;-57
2022/05/15 17:15:43;;;;;;;;;;;;;;;;;;5048306;28;19917;-57